sensor_id;sensor_type;location;lat;lon;timestamp;P1;durP1;ratioP1;P2;durP2;ratioP2
23394;SDS011;11870;53.084;18.206;2023-04-01T00:00:51;19.15;;;10.93;;
23394;SDS011;11870;53.084;18.206;2023-04-01T00:03:18;25.33;;;12.02;;
23394;SDS011;11870;53.084;18.206;2023-04-01T00:05:44;20.83;;;11.30;;
23394;SDS011;11870;53.084;18.206;2023-04-01T00:08:11;21.00;;;12.23;;
23394;SDS011;11870;53.084;18.206;2023-04-01T00:10:37;31.05;;;14.20;;
23394;SDS011;11870;53.084;18.206;2023-04-01T00:13:04;29.02;;;14.02;;
23394;SDS011;11870;53.084;18.206;2023-04-01T00:15:30;25.30;;;13.05;;
23394;SDS011;11870;53.084;18.206;2023-04-01T00:17:57;26.23;;;14.00;;
23394;SDS011;11870;53.084;18.206;2023-04-01T00:20:24;27.55;;;14.52;;
23394;SDS011;11870;53.084;18.206;2023-04-01T00:22:50;29.23;;;14.82;;
23394;SDS011;11870;53.084;18.206;2023-04-01T00:25:17;36.55;;;15.45;;
23394;SDS011;11870;53.084;18.206;2023-04-01T00:27:44;26.48;;;14.43;;
23394;SDS011;11870;53.084;18.206;2023-04-01T00:30:10;29.88;;;15.75;;
23394;SDS011;11870;53.084;18.206;2023-04-01T00:32:37;32.60;;;15.73;;
23394;SDS011;11870;53.084;18.206;2023-04-01T00:35:03;30.33;;;15.68;;
23394;SDS011;11870;53.084;18.206;2023-04-01T00:37:30;29.10;;;15.18;;
23394;SDS011;11870;53.084;18.206;2023-04-01T00:39:56;29.38;;;15.45;;
23394;SDS011;11870;53.084;18.206;2023-04-01T00:42:23;31.52;;;15.50;;
23394;SDS011;11870;53.084;18.206;2023-04-01T00:44:51;31.15;;;15.43;;
23394;SDS011;11870;53.084;18.206;2023-04-01T00:47:19;34.60;;;16.27;;
23394;SDS011;11870;53.084;18.206;2023-04-01T00:49:47;30.95;;;15.60;;
23394;SDS011;11870;53.084;18.206;2023-04-01T00:52:17;31.25;;;16.25;;
23394;SDS011;11870;53.084;18.206;2023-04-01T00:54:45;28.35;;;15.93;;
23394;SDS011;11870;53.084;18.206;2023-04-01T00:57:14;33.85;;;16.90;;
23394;SDS011;11870;53.084;18.206;2023-04-01T00:59:46;30.25;;;16.10;;
23394;SDS011;11870;53.084;18.206;2023-04-01T01:02:15;31.85;;;16.13;;
23394;SDS011;11870;53.084;18.206;2023-04-01T01:04:42;33.90;;;17.30;;
23394;SDS011;11870;53.084;18.206;2023-04-01T01:07:12;30.55;;;15.57;;
23394;SDS011;11870;53.084;18.206;2023-04-01T01:12:31;34.58;;;17.15;;
23394;SDS011;11870;53.084;18.206;2023-04-01T01:15:24;32.58;;;15.88;;
23394;SDS011;11870;53.084;18.206;2023-04-01T01:18:13;34.65;;;16.60;;
23394;SDS011;11870;53.084;18.206;2023-04-01T01:24:17;27.27;;;15.23;;
23394;SDS011;11870;53.084;18.206;2023-04-01T01:26:48;29.38;;;15.38;;
23394;SDS011;11870;53.084;18.206;2023-04-01T01:29:32;31.77;;;15.98;;
23394;SDS011;11870;53.084;18.206;2023-04-01T01:37:46;27.40;;;14.32;;
23394;SDS011;11870;53.084;18.206;2023-04-01T01:40:13;28.30;;;14.73;;
23394;SDS011;11870;53.084;18.206;2023-04-01T01:42:43;30.50;;;15.52;;
23394;SDS011;11870;53.084;18.206;2023-04-01T01:45:14;28.95;;;13.45;;
23394;SDS011;11870;53.084;18.206;2023-04-01T01:47:44;30.02;;;15.05;;
23394;SDS011;11870;53.084;18.206;2023-04-01T01:50:11;31.30;;;15.52;;
23394;SDS011;11870;53.084;18.206;2023-04-01T01:52:38;33.63;;;15.57;;
23394;SDS011;11870;53.084;18.206;2023-04-01T01:58:06;27.58;;;14.10;;
23394;SDS011;11870;53.084;18.206;2023-04-01T02:00:39;27.63;;;13.60;;
23394;SDS011;11870;53.084;18.206;2023-04-01T02:03:08;23.88;;;13.38;;
23394;SDS011;11870;53.084;18.206;2023-04-01T02:05:34;24.20;;;13.43;;
23394;SDS011;11870;53.084;18.206;2023-04-01T02:08:09;25.10;;;14.35;;
23394;SDS011;11870;53.084;18.206;2023-04-01T02:10:37;26.65;;;13.65;;
23394;SDS011;11870;53.084;18.206;2023-04-01T02:13:13;29.10;;;15.40;;
23394;SDS011;11870;53.084;18.206;2023-04-01T02:15:45;29.17;;;15.35;;
23394;SDS011;11870;53.084;18.206;2023-04-01T02:18:13;28.58;;;15.90;;
23394;SDS011;11870;53.084;18.206;2023-04-01T02:20:40;29.80;;;16.35;;
23394;SDS011;11870;53.084;18.206;2023-04-01T02:23:06;30.00;;;16.42;;
23394;SDS011;11870;53.084;18.206;2023-04-01T02:25:34;30.58;;;16.08;;
23394;SDS011;11870;53.084;18.206;2023-04-01T02:28:03;29.33;;;15.98;;
23394;SDS011;11870;53.084;18.206;2023-04-01T02:30:32;28.75;;;15.80;;
23394;SDS011;11870;53.084;18.206;2023-04-01T02:33:07;29.30;;;14.57;;
23394;SDS011;11870;53.084;18.206;2023-04-01T02:35:37;28.13;;;15.32;;
23394;SDS011;11870;53.084;18.206;2023-04-01T02:38:04;24.58;;;13.43;;
23394;SDS011;11870;53.084;18.206;2023-04-01T02:40:41;22.13;;;11.98;;
23394;SDS011;11870;53.084;18.206;2023-04-01T02:43:07;19.15;;;11.13;;
23394;SDS011;11870;53.084;18.206;2023-04-01T02:45:34;19.23;;;11.52;;
23394;SDS011;11870;53.084;18.206;2023-04-01T02:48:00;20.20;;;11.18;;
23394;SDS011;11870;53.084;18.206;2023-04-01T02:50:26;21.52;;;11.40;;
23394;SDS011;11870;53.084;18.206;2023-04-01T02:52:53;18.90;;;10.50;;
23394;SDS011;11870;53.084;18.206;2023-04-01T02:55:19;18.20;;;10.00;;
23394;SDS011;11870;53.084;18.206;2023-04-01T02:57:45;17.50;;;9.77;;
23394;SDS011;11870;53.084;18.206;2023-04-01T03:00:12;17.38;;;9.77;;
23394;SDS011;11870;53.084;18.206;2023-04-01T03:02:38;14.48;;;8.80;;
23394;SDS011;11870;53.084;18.206;2023-04-01T03:05:05;18.05;;;9.75;;
23394;SDS011;11870;53.084;18.206;2023-04-01T03:07:32;14.60;;;8.70;;
23394;SDS011;11870;53.084;18.206;2023-04-01T03:09:59;15.60;;;9.48;;
23394;SDS011;11870;53.084;18.206;2023-04-01T03:12:25;15.27;;;8.75;;
23394;SDS011;11870;53.084;18.206;2023-04-01T03:14:51;14.60;;;8.02;;
23394;SDS011;11870;53.084;18.206;2023-04-01T03:17:17;14.68;;;8.10;;
23394;SDS011;11870;53.084;18.206;2023-04-01T03:19:44;15.93;;;8.85;;
23394;SDS011;11870;53.084;18.206;2023-04-01T03:22:10;13.38;;;8.20;;
23394;SDS011;11870;53.084;18.206;2023-04-01T03:24:37;14.65;;;8.05;;
23394;SDS011;11870;53.084;18.206;2023-04-01T03:27:03;15.13;;;8.68;;
23394;SDS011;11870;53.084;18.206;2023-04-01T03:29:30;15.95;;;9.18;;
23394;SDS011;11870;53.084;18.206;2023-04-01T03:31:56;15.70;;;8.68;;
23394;SDS011;11870;53.084;18.206;2023-04-01T03:34:24;19.45;;;9.40;;
23394;SDS011;11870;53.084;18.206;2023-04-01T03:36:51;91.20;;;45.58;;
23394;SDS011;11870;53.084;18.206;2023-04-01T03:39:17;34.50;;;18.98;;
23394;SDS011;11870;53.084;18.206;2023-04-01T03:41:44;46.38;;;27.80;;
23394;SDS011;11870;53.084;18.206;2023-04-01T03:44:11;15.93;;;9.10;;
23394;SDS011;11870;53.084;18.206;2023-04-01T03:46:37;24.27;;;14.02;;
23394;SDS011;11870;53.084;18.206;2023-04-01T03:49:10;14.43;;;8.23;;
23394;SDS011;11870;53.084;18.206;2023-04-01T03:51:40;14.95;;;8.05;;
23394;SDS011;11870;53.084;18.206;2023-04-01T03:54:08;32.53;;;15.05;;
23394;SDS011;11870;53.084;18.206;2023-04-01T03:56:34;14.82;;;7.68;;
23394;SDS011;11870;53.084;18.206;2023-04-01T03:59:02;11.68;;;6.22;;
23394;SDS011;11870;53.084;18.206;2023-04-01T04:01:28;17.00;;;8.82;;
23394;SDS011;11870;53.084;18.206;2023-04-01T04:03:55;12.93;;;5.60;;
23394;SDS011;11870;53.084;18.206;2023-04-01T04:06:22;14.07;;;6.50;;
23394;SDS011;11870;53.084;18.206;2023-04-01T04:08:49;12.93;;;6.07;;
23394;SDS011;11870;53.084;18.206;2023-04-01T04:11:15;14.30;;;6.30;;
23394;SDS011;11870;53.084;18.206;2023-04-01T04:13:42;16.00;;;7.20;;
23394;SDS011;11870;53.084;18.206;2023-04-01T04:16:09;18.48;;;9.20;;
23394;SDS011;11870;53.084;18.206;2023-04-01T04:18:36;22.52;;;10.48;;
23394;SDS011;11870;53.084;18.206;2023-04-01T04:21:02;18.30;;;8.82;;
23394;SDS011;11870;53.084;18.206;2023-04-01T04:23:29;23.15;;;11.38;;
23394;SDS011;11870;53.084;18.206;2023-04-01T04:25:57;25.67;;;9.95;;
23394;SDS011;11870;53.084;18.206;2023-04-01T04:28:34;27.35;;;11.05;;
23394;SDS011;11870;53.084;18.206;2023-04-01T04:31:01;25.77;;;10.82;;
23394;SDS011;11870;53.084;18.206;2023-04-01T04:33:28;27.95;;;9.98;;
23394;SDS011;11870;53.084;18.206;2023-04-01T04:35:55;23.88;;;10.70;;
23394;SDS011;11870;53.084;18.206;2023-04-01T04:38:21;49.88;;;17.73;;
23394;SDS011;11870;53.084;18.206;2023-04-01T04:40:48;22.75;;;9.52;;
23394;SDS011;11870;53.084;18.206;2023-04-01T04:43:15;33.67;;;13.38;;
23394;SDS011;11870;53.084;18.206;2023-04-01T04:45:41;42.08;;;15.00;;
23394;SDS011;11870;53.084;18.206;2023-04-01T04:48:08;29.52;;;11.45;;
23394;SDS011;11870;53.084;18.206;2023-04-01T04:50:34;55.90;;;17.83;;
23394;SDS011;11870;53.084;18.206;2023-04-01T04:53:01;30.58;;;12.95;;
23394;SDS011;11870;53.084;18.206;2023-04-01T04:55:28;27.27;;;12.10;;
23394;SDS011;11870;53.084;18.206;2023-04-01T04:57:54;26.52;;;11.60;;
23394;SDS011;11870;53.084;18.206;2023-04-01T05:00:21;30.08;;;11.30;;
23394;SDS011;11870;53.084;18.206;2023-04-01T05:02:47;49.25;;;17.33;;
23394;SDS011;11870;53.084;18.206;2023-04-01T05:05:13;29.73;;;11.85;;
23394;SDS011;11870;53.084;18.206;2023-04-01T05:07:40;34.65;;;14.00;;
23394;SDS011;11870;53.084;18.206;2023-04-01T05:10:06;33.00;;;12.57;;
23394;SDS011;11870;53.084;18.206;2023-04-01T05:12:33;26.50;;;12.65;;
23394;SDS011;11870;53.084;18.206;2023-04-01T05:15:05;26.83;;;12.80;;
23394;SDS011;11870;53.084;18.206;2023-04-01T05:17:32;29.88;;;12.30;;
23394;SDS011;11870;53.084;18.206;2023-04-01T05:19:58;32.47;;;13.30;;
23394;SDS011;11870;53.084;18.206;2023-04-01T05:22:25;33.50;;;14.60;;
23394;SDS011;11870;53.084;18.206;2023-04-01T05:24:51;33.97;;;14.40;;
23394;SDS011;11870;53.084;18.206;2023-04-01T05:27:17;35.80;;;14.40;;
23394;SDS011;11870;53.084;18.206;2023-04-01T05:29:44;31.80;;;14.43;;
23394;SDS011;11870;53.084;18.206;2023-04-01T05:32:10;39.67;;;14.57;;
23394;SDS011;11870;53.084;18.206;2023-04-01T05:34:36;31.23;;;13.52;;
23394;SDS011;11870;53.084;18.206;2023-04-01T05:37:03;28.83;;;12.85;;
23394;SDS011;11870;53.084;18.206;2023-04-01T05:39:29;31.42;;;12.10;;
23394;SDS011;11870;53.084;18.206;2023-04-01T05:41:55;29.92;;;13.13;;
23394;SDS011;11870;53.084;18.206;2023-04-01T05:44:21;33.38;;;13.70;;
23394;SDS011;11870;53.084;18.206;2023-04-01T05:46:48;30.58;;;12.98;;
23394;SDS011;11870;53.084;18.206;2023-04-01T05:49:14;30.70;;;12.25;;
23394;SDS011;11870;53.084;18.206;2023-04-01T05:51:41;42.85;;;16.95;;
23394;SDS011;11870;53.084;18.206;2023-04-01T05:54:07;36.17;;;15.63;;
23394;SDS011;11870;53.084;18.206;2023-04-01T05:56:33;31.65;;;13.68;;
23394;SDS011;11870;53.084;18.206;2023-04-01T05:59:00;35.35;;;14.60;;
23394;SDS011;11870;53.084;18.206;2023-04-01T06:01:26;30.50;;;14.18;;
23394;SDS011;11870;53.084;18.206;2023-04-01T06:03:52;30.85;;;14.75;;
23394;SDS011;11870;53.084;18.206;2023-04-01T06:06:29;34.72;;;15.75;;
23394;SDS011;11870;53.084;18.206;2023-04-01T06:08:57;36.25;;;16.45;;
23394;SDS011;11870;53.084;18.206;2023-04-01T06:11:29;33.45;;;15.43;;
23394;SDS011;11870;53.084;18.206;2023-04-01T06:17:13;29.45;;;12.60;;
23394;SDS011;11870;53.084;18.206;2023-04-01T06:20:08;30.77;;;12.80;;
23394;SDS011;11870;53.084;18.206;2023-04-01T06:22:47;25.40;;;12.27;;
23394;SDS011;11870;53.084;18.206;2023-04-01T06:25:38;26.98;;;13.55;;
23394;SDS011;11870;53.084;18.206;2023-04-01T06:30:57;36.22;;;15.65;;
23394;SDS011;11870;53.084;18.206;2023-04-01T06:33:52;23.80;;;13.07;;
23394;SDS011;11870;53.084;18.206;2023-04-01T06:41:54;22.60;;;11.77;;
23394;SDS011;11870;53.084;18.206;2023-04-01T06:55:50;21.70;;;11.55;;
23394;SDS011;11870;53.084;18.206;2023-04-01T06:58:21;25.48;;;12.68;;
23394;SDS011;11870;53.084;18.206;2023-04-01T07:00:54;24.55;;;10.95;;
23394;SDS011;11870;53.084;18.206;2023-04-01T07:03:32;20.50;;;11.05;;
23394;SDS011;11870;53.084;18.206;2023-04-01T07:06:05;23.58;;;12.02;;
23394;SDS011;11870;53.084;18.206;2023-04-01T07:08:36;21.27;;;11.10;;
23394;SDS011;11870;53.084;18.206;2023-04-01T07:11:06;20.10;;;11.23;;
23394;SDS011;11870;53.084;18.206;2023-04-01T07:13:45;20.48;;;11.07;;
23394;SDS011;11870;53.084;18.206;2023-04-01T07:16:32;28.10;;;12.70;;
23394;SDS011;11870;53.084;18.206;2023-04-01T07:19:18;17.15;;;9.70;;
23394;SDS011;11870;53.084;18.206;2023-04-01T07:21:56;23.55;;;10.85;;
23394;SDS011;11870;53.084;18.206;2023-04-01T07:24:41;19.70;;;10.30;;
23394;SDS011;11870;53.084;18.206;2023-04-01T07:27:09;22.10;;;10.88;;
23394;SDS011;11870;53.084;18.206;2023-04-01T07:29:36;22.98;;;10.95;;
23394;SDS011;11870;53.084;18.206;2023-04-01T07:34:31;20.48;;;9.80;;
23394;SDS011;11870;53.084;18.206;2023-04-01T07:37:22;16.77;;;8.70;;
23394;SDS011;11870;53.084;18.206;2023-04-01T07:40:11;13.15;;;7.95;;
23394;SDS011;11870;53.084;18.206;2023-04-01T07:45:44;14.75;;;7.97;;
23394;SDS011;11870;53.084;18.206;2023-04-01T07:51:08;16.30;;;9.20;;
23394;SDS011;11870;53.084;18.206;2023-04-01T07:53:51;16.05;;;8.57;;
23394;SDS011;11870;53.084;18.206;2023-04-01T07:59:16;12.80;;;7.65;;
23394;SDS011;11870;53.084;18.206;2023-04-01T08:04:31;14.10;;;8.60;;
23394;SDS011;11870;53.084;18.206;2023-04-01T08:09:37;16.15;;;9.05;;
23394;SDS011;11870;53.084;18.206;2023-04-01T08:12:31;17.63;;;9.88;;
23394;SDS011;11870;53.084;18.206;2023-04-01T08:21:19;16.60;;;8.95;;
23394;SDS011;11870;53.084;18.206;2023-04-01T08:23:19;14.98;;;8.68;;
23394;SDS011;11870;53.084;18.206;2023-04-01T08:26:13;15.38;;;9.40;;
23394;SDS011;11870;53.084;18.206;2023-04-01T08:28:56;16.40;;;9.15;;
23394;SDS011;11870;53.084;18.206;2023-04-01T08:32:11;14.90;;;9.02;;
23394;SDS011;11870;53.084;18.206;2023-04-01T08:34:38;16.90;;;9.43;;
23394;SDS011;11870;53.084;18.206;2023-04-01T08:37:09;15.88;;;8.18;;
23394;SDS011;11870;53.084;18.206;2023-04-01T08:39:44;13.18;;;7.68;;
23394;SDS011;11870;53.084;18.206;2023-04-01T08:59:20;15.15;;;8.82;;
23394;SDS011;11870;53.084;18.206;2023-04-01T09:04:50;18.33;;;9.73;;
23394;SDS011;11870;53.084;18.206;2023-04-01T09:10:39;15.57;;;8.45;;
23394;SDS011;11870;53.084;18.206;2023-04-01T09:13:35;14.65;;;8.18;;
23394;SDS011;11870;53.084;18.206;2023-04-01T09:19:02;15.20;;;9.25;;
23394;SDS011;11870;53.084;18.206;2023-04-01T09:27:19;15.93;;;9.38;;
23394;SDS011;11870;53.084;18.206;2023-04-01T09:35:47;13.32;;;8.68;;
23394;SDS011;11870;53.084;18.206;2023-04-01T09:40:52;10.25;;;7.10;;
23394;SDS011;11870;53.084;18.206;2023-04-01T09:45:58;10.30;;;7.53;;
23394;SDS011;11870;53.084;18.206;2023-04-01T09:48:56;13.23;;;8.00;;
23394;SDS011;11870;53.084;18.206;2023-04-01T09:54:41;10.48;;;7.38;;
23394;SDS011;11870;53.084;18.206;2023-04-01T10:13:01;14.43;;;7.85;;
23394;SDS011;11870;53.084;18.206;2023-04-01T10:20:54;11.32;;;7.90;;
23394;SDS011;11870;53.084;18.206;2023-04-01T10:23:41;10.95;;;7.40;;
23394;SDS011;11870;53.084;18.206;2023-04-01T10:29:02;23.15;;;14.18;;
23394;SDS011;11870;53.084;18.206;2023-04-01T10:37:23;14.02;;;8.63;;
23394;SDS011;11870;53.084;18.206;2023-04-01T10:53:40;10.27;;;7.47;;
23394;SDS011;11870;53.084;18.206;2023-04-01T10:59:15;9.10;;;5.93;;
23394;SDS011;11870;53.084;18.206;2023-04-01T11:05:16;11.27;;;6.38;;
23394;SDS011;11870;53.084;18.206;2023-04-01T11:08:06;9.90;;;5.82;;
23394;SDS011;11870;53.084;18.206;2023-04-01T11:21:54;9.32;;;6.30;;
23394;SDS011;11870;53.084;18.206;2023-04-01T11:27:19;8.02;;;4.68;;
23394;SDS011;11870;53.084;18.206;2023-04-01T11:30:29;7.65;;;4.13;;
23394;SDS011;11870;53.084;18.206;2023-04-01T11:33:11;57.53;;;22.88;;
23394;SDS011;11870;53.084;18.206;2023-04-01T11:35:55;7.50;;;4.75;;
23394;SDS011;11870;53.084;18.206;2023-04-01T11:43:47;11.88;;;6.25;;
23394;SDS011;11870;53.084;18.206;2023-04-01T11:46:16;5.75;;;3.78;;
23394;SDS011;11870;53.084;18.206;2023-04-01T11:54:06;5.38;;;3.40;;
23394;SDS011;11870;53.084;18.206;2023-04-01T12:10:02;5.45;;;2.90;;
23394;SDS011;11870;53.084;18.206;2023-04-01T12:15:20;5.32;;;3.20;;
23394;SDS011;11870;53.084;18.206;2023-04-01T12:17:51;5.13;;;3.53;;
23394;SDS011;11870;53.084;18.206;2023-04-01T12:20:37;5.05;;;4.07;;
23394;SDS011;11870;53.084;18.206;2023-04-01T12:45:02;4.00;;;2.65;;
23394;SDS011;11870;53.084;18.206;2023-04-01T12:47:57;3.90;;;2.47;;
23394;SDS011;11870;53.084;18.206;2023-04-01T12:55:51;4.95;;;4.43;;
23394;SDS011;11870;53.084;18.206;2023-04-01T12:58:22;3.15;;;2.80;;
23394;SDS011;11870;53.084;18.206;2023-04-01T13:06:19;5.03;;;4.25;;
23394;SDS011;11870;53.084;18.206;2023-04-01T13:16:45;5.57;;;4.70;;
23394;SDS011;11870;53.084;18.206;2023-04-01T13:19:44;5.70;;;3.85;;
23394;SDS011;11870;53.084;18.206;2023-04-01T13:27:56;3.17;;;2.53;;
23394;SDS011;11870;53.084;18.206;2023-04-01T13:47:32;3.33;;;2.33;;
23394;SDS011;11870;53.084;18.206;2023-04-01T13:53:01;5.88;;;3.63;;
23394;SDS011;11870;53.084;18.206;2023-04-01T14:06:49;4.43;;;2.95;;
23394;SDS011;11870;53.084;18.206;2023-04-01T14:11:59;4.50;;;2.70;;
23394;SDS011;11870;53.084;18.206;2023-04-01T14:22:20;4.38;;;3.20;;
23394;SDS011;11870;53.084;18.206;2023-04-01T14:25:17;3.83;;;2.05;;
23394;SDS011;11870;53.084;18.206;2023-04-01T14:47:48;4.28;;;2.28;;
23394;SDS011;11870;53.084;18.206;2023-04-01T14:50:24;2.33;;;2.05;;
23394;SDS011;11870;53.084;18.206;2023-04-01T14:58:31;5.28;;;3.20;;
23394;SDS011;11870;53.084;18.206;2023-04-01T15:03:40;6.18;;;3.60;;
23394;SDS011;11870;53.084;18.206;2023-04-01T15:06:46;8.68;;;4.75;;
23394;SDS011;11870;53.084;18.206;2023-04-01T15:12:50;6.10;;;3.42;;
23394;SDS011;11870;53.084;18.206;2023-04-01T15:17:23;4.72;;;2.78;;
23394;SDS011;11870;53.084;18.206;2023-04-01T15:31:13;3.90;;;2.22;;
23394;SDS011;11870;53.084;18.206;2023-04-01T15:43:43;4.30;;;2.50;;
23394;SDS011;11870;53.084;18.206;2023-04-01T15:54:12;6.60;;;4.50;;
23394;SDS011;11870;53.084;18.206;2023-04-01T15:56:55;8.43;;;5.53;;
23394;SDS011;11870;53.084;18.206;2023-04-01T16:01:59;5.43;;;3.63;;
23394;SDS011;11870;53.084;18.206;2023-04-01T16:05:09;13.55;;;7.90;;
23394;SDS011;11870;53.084;18.206;2023-04-01T16:13:46;19.25;;;10.90;;
23394;SDS011;11870;53.084;18.206;2023-04-01T16:16:34;9.65;;;5.40;;
23394;SDS011;11870;53.084;18.206;2023-04-01T16:19:11;9.38;;;5.50;;
23394;SDS011;11870;53.084;18.206;2023-04-01T16:21:57;9.27;;;5.43;;
23394;SDS011;11870;53.084;18.206;2023-04-01T16:24:33;9.13;;;5.90;;
23394;SDS011;11870;53.084;18.206;2023-04-01T16:29:30;13.70;;;7.50;;
23394;SDS011;11870;53.084;18.206;2023-04-01T16:37:41;11.10;;;6.53;;
23394;SDS011;11870;53.084;18.206;2023-04-01T16:53:09;10.77;;;6.00;;
23394;SDS011;11870;53.084;18.206;2023-04-01T16:58:09;8.55;;;5.80;;
23394;SDS011;11870;53.084;18.206;2023-04-01T17:00:48;12.60;;;7.03;;
23394;SDS011;11870;53.084;18.206;2023-04-01T17:08:23;10.98;;;6.35;;
23394;SDS011;11870;53.084;18.206;2023-04-01T17:10:53;8.05;;;5.50;;
23394;SDS011;11870;53.084;18.206;2023-04-01T17:13:40;7.85;;;4.93;;
23394;SDS011;11870;53.084;18.206;2023-04-01T17:21:47;9.65;;;5.32;;
23394;SDS011;11870;53.084;18.206;2023-04-01T17:26:47;10.88;;;5.72;;
23394;SDS011;11870;53.084;18.206;2023-04-01T17:32:14;11.32;;;6.60;;
23394;SDS011;11870;53.084;18.206;2023-04-01T18:00:46;7.60;;;5.10;;
23394;SDS011;11870;53.084;18.206;2023-04-01T18:08:41;11.82;;;6.18;;
23394;SDS011;11870;53.084;18.206;2023-04-01T18:11:39;16.90;;;8.68;;
23394;SDS011;11870;53.084;18.206;2023-04-01T18:14:41;14.68;;;7.20;;
23394;SDS011;11870;53.084;18.206;2023-04-01T18:17:12;8.60;;;5.22;;
23394;SDS011;11870;53.084;18.206;2023-04-01T18:25:04;19.38;;;8.57;;
23394;SDS011;11870;53.084;18.206;2023-04-01T18:27:37;11.52;;;5.78;;
23394;SDS011;11870;53.084;18.206;2023-04-01T18:37:54;11.50;;;5.80;;
23394;SDS011;11870;53.084;18.206;2023-04-01T18:40:23;7.20;;;4.55;;
23394;SDS011;11870;53.084;18.206;2023-04-01T18:43:02;9.52;;;5.57;;
23394;SDS011;11870;53.084;18.206;2023-04-01T18:45:35;12.48;;;6.93;;
23394;SDS011;11870;53.084;18.206;2023-04-01T18:48:12;12.02;;;6.85;;
23394;SDS011;11870;53.084;18.206;2023-04-01T18:50:58;9.00;;;5.68;;
23394;SDS011;11870;53.084;18.206;2023-04-01T18:53:48;8.25;;;5.20;;
23394;SDS011;11870;53.084;18.206;2023-04-01T18:56:26;9.70;;;5.13;;
23394;SDS011;11870;53.084;18.206;2023-04-01T19:04:57;8.90;;;4.78;;
23394;SDS011;11870;53.084;18.206;2023-04-01T19:10:17;8.05;;;4.75;;
23394;SDS011;11870;53.084;18.206;2023-04-01T19:15:44;9.75;;;5.60;;
23394;SDS011;11870;53.084;18.206;2023-04-01T19:18:22;11.10;;;6.22;;
23394;SDS011;11870;53.084;18.206;2023-04-01T19:21:26;21.10;;;9.05;;
23394;SDS011;11870;53.084;18.206;2023-04-01T19:26:43;9.30;;;5.97;;
23394;SDS011;11870;53.084;18.206;2023-04-01T19:36:54;13.52;;;6.40;;
23394;SDS011;11870;53.084;18.206;2023-04-01T19:47:17;11.80;;;7.13;;
23394;SDS011;11870;53.084;18.206;2023-04-01T19:52:54;11.85;;;6.72;;
23394;SDS011;11870;53.084;18.206;2023-04-01T19:55:38;12.95;;;6.28;;
23394;SDS011;11870;53.084;18.206;2023-04-01T20:00:43;12.75;;;6.97;;
23394;SDS011;11870;53.084;18.206;2023-04-01T20:03:15;12.63;;;7.07;;
23394;SDS011;11870;53.084;18.206;2023-04-01T20:14:45;10.48;;;5.60;;
23394;SDS011;11870;53.084;18.206;2023-04-01T20:17:15;9.43;;;5.88;;
23394;SDS011;11870;53.084;18.206;2023-04-01T20:19:43;11.30;;;5.97;;
23394;SDS011;11870;53.084;18.206;2023-04-01T20:24:58;13.20;;;6.95;;
23394;SDS011;11870;53.084;18.206;2023-04-01T20:27:33;12.32;;;7.00;;
23394;SDS011;11870;53.084;18.206;2023-04-01T20:35:50;13.63;;;7.25;;
23394;SDS011;11870;53.084;18.206;2023-04-01T20:40:45;9.93;;;6.25;;
23394;SDS011;11870;53.084;18.206;2023-04-01T20:43:20;13.02;;;6.68;;
23394;SDS011;11870;53.084;18.206;2023-04-01T20:51:25;13.38;;;6.53;;
23394;SDS011;11870;53.084;18.206;2023-04-01T20:56:41;10.15;;;6.30;;
23394;SDS011;11870;53.084;18.206;2023-04-01T21:22:31;25.17;;;10.35;;
23394;SDS011;11870;53.084;18.206;2023-04-01T21:27:35;11.85;;;6.35;;
23394;SDS011;11870;53.084;18.206;2023-04-01T21:35:41;13.50;;;7.65;;
23394;SDS011;11870;53.084;18.206;2023-04-01T21:45:37;13.32;;;6.72;;
23394;SDS011;11870;53.084;18.206;2023-04-01T21:54:29;11.18;;;6.00;;
23394;SDS011;11870;53.084;18.206;2023-04-01T22:04:55;15.95;;;7.72;;
23394;SDS011;11870;53.084;18.206;2023-04-01T22:10:16;19.33;;;9.85;;
23394;SDS011;11870;53.084;18.206;2023-04-01T22:15:27;12.32;;;7.05;;
23394;SDS011;11870;53.084;18.206;2023-04-01T22:18:04;13.50;;;6.22;;
23394;SDS011;11870;53.084;18.206;2023-04-01T22:20:36;12.82;;;5.38;;
23394;SDS011;11870;53.084;18.206;2023-04-01T22:23:16;14.73;;;5.68;;
23394;SDS011;11870;53.084;18.206;2023-04-01T22:31:28;10.77;;;5.57;;
23394;SDS011;11870;53.084;18.206;2023-04-01T22:47:33;8.40;;;4.65;;
23394;SDS011;11870;53.084;18.206;2023-04-01T22:50:14;11.25;;;5.40;;
23394;SDS011;11870;53.084;18.206;2023-04-01T22:52:50;9.13;;;4.70;;
23394;SDS011;11870;53.084;18.206;2023-04-01T23:03:22;7.20;;;3.53;;
23394;SDS011;11870;53.084;18.206;2023-04-01T23:05:56;6.30;;;3.35;;
23394;SDS011;11870;53.084;18.206;2023-04-01T23:11:29;7.72;;;3.78;;
23394;SDS011;11870;53.084;18.206;2023-04-01T23:16:48;7.97;;;3.70;;
23394;SDS011;11870;53.084;18.206;2023-04-01T23:24:40;10.65;;;4.75;;
23394;SDS011;11870;53.084;18.206;2023-04-01T23:27:20;9.45;;;4.07;;
23394;SDS011;11870;53.084;18.206;2023-04-01T23:29:56;7.32;;;3.45;;
23394;SDS011;11870;53.084;18.206;2023-04-01T23:32:23;6.00;;;3.38;;
23394;SDS011;11870;53.084;18.206;2023-04-01T23:34:52;7.97;;;3.65;;
23394;SDS011;11870;53.084;18.206;2023-04-01T23:37:19;7.57;;;3.45;;
23394;SDS011;11870;53.084;18.206;2023-04-01T23:39:48;8.77;;;3.55;;
23394;SDS011;11870;53.084;18.206;2023-04-01T23:44:41;5.18;;;3.47;;
23394;SDS011;11870;53.084;18.206;2023-04-01T23:47:12;6.65;;;3.50;;
23394;SDS011;11870;53.084;18.206;2023-04-01T23:49:56;8.05;;;3.65;;
23394;SDS011;11870;53.084;18.206;2023-04-01T23:52:30;5.50;;;3.15;;
23394;SDS011;11870;53.084;18.206;2023-04-01T23:55:11;5.95;;;3.03;;
23394;SDS011;11870;53.084;18.206;2023-04-01T23:57:38;6.53;;;3.70;;
